Bei Facebook empfehlenBei Twitter postenGoogle plusPinterest

Das Wetter im Erzgebirge am 19.05.2015

Wetter und Klima am 19.05.2015 Holzhau im Erzgebirge (630m ü.NN)
Letzte gemessene Temperatur und Uhrzeit der Messung23:45:00 Uhr8.60 °C
Temperatur (Maximum / Höchstwert) und Uhrzeit der Messung16:30:00 Uhr19.30 °C
Temperatur (Minimum / Tiefstwert) und Uhrzeit der Messung06:30:005.80 °C
Errechneter Absolutwert der Temperaturschwankungen zwischen Tmin und Tmax des Tages13.50 K
Errechnete Tagesmitteltemperatur12.74063 °C
Gesamt - Niederschlag des Tages (in flüssiger Form)1.04 Liter / m²
Luftdruck (Maximum / Höchstwert) und Zeitpunkt der Messung23:15:00 Uhr1009.60 hPa
Luftdruck (Minimum / Tiefstwert) und Zeitpunkt der Messung04:00:00 Uhr1004.30 hPa
Errechneter Absolutwert der Luftdruckschwankungen des Tages5.30 hPa
Höchste gemessene Windgeschwindigkeit und Uhrzeit der Messung08:45:00 Uhr9.00 km/h
Errechnete Windhäufigkeit in Relation zu den Messwerten des Tages4.16667 %
Niedrigste Windkühle (Windchill) und Zeitpunkt der Messung06:30:00 Uhr5.80 °C
Taupunkt (Maximum / Höchstwert) und Uhrzeit der Messung14:30:00 Uhr12.20 °C
Taupunkt (Minimum / Tiefstwert) und Uhrzeit der Messung04:00:003.90 °C
Anzahl der automatisch eingelesenen Messwerte 96

Detaillierte Wetter- und Klima- Messwerte für den 19.05.2015 in Holzhau im Erzgebirge (630m ü.NN)
ZeitTemperaturLuftdruckRel. LuftfeuchteWindWindrichtungWindchillTaupunktNiederschlag l/m²
23:45:008.60 °C1009.50 hPa78.00 %5.00 °C1.04
23:30:008.80 °C1009.50 hPa77.00 %5.00 °C1.04
23:15:009.10 °C1009.60 hPa76.00 %5.10 °C1.04
23:00:009.40 °C1009.30 hPa75.00 %5.20 °C1.04
22:45:009.80 °C1009.30 hPa74.00 %5.40 °C1.04
22:30:0010.10 °C1009.40 hPa73.00 %5.50 °C1.04
22:15:0010.40 °C1009.40 hPa72.00 %5.60 °C1.04
22:00:0010.80 °C1009.10 hPa73.00 %6.20 °C1.04
21:45:0010.80 °C1008.80 hPa74.00 %6.40 °C1.04
21:30:0011.10 °C1008.60 hPa73.00 %6.50 °C1.04
21:15:0011.60 °C1008.40 hPa71.00 %6.50 °C1.04
21:00:0012.00 °C1008.40 hPa68.00 %6.30 °C1.04
20:45:0012.80 °C1008.20 hPa65.00 %6.40 °C1.04
20:30:0013.30 °C1007.80 hPa63.00 %6.40 °C1.04
20:15:0014.10 °C1007.70 hPa60.00 %6.50 °C1.04
20:00:0014.60 °C1007.40 hPa59.00 %6.70 °C1.04
19:45:0015.30 °C1007.30 hPa57.00 %6.80 °C1.04
19:30:0015.80 °C1007.30 hPa55.00 %6.80 °C1.04
19:15:0016.50 °C1007.20 hPa54.00 %7.20 °C1.04
19:00:0016.90 °C1007.00 hPa55.00 %7.80 °C1.04
18:45:0017.10 °C1006.80 hPa53.00 %7.50 °C1.04
18:30:0017.50 °C1006.80 hPa52.00 %7.50 °C1.04
18:15:0017.40 °C1006.60 hPa52.00 %7.50 °C1.04
18:00:0017.80 °C1006.80 hPa52.00 %7.80 °C1.04
17:45:0018.10 °C1006.40 hPa51.00 %7.80 °C1.04
17:30:0018.70 °C1006.30 hPa52.00 %8.70 °C1.04
17:15:0018.80 °C1006.20 hPa54.00 %6.48 km/hW19.50 °C9.30 °C1.04
17:00:0018.20 °C1006.50 hPa53.00 %8.50 °C1.04
16:45:0019.10 °C1006.40 hPa54.00 %5.40 km/hWNW20.00 °C9.60 °C1.04
16:30:0019.30 °C1006.40 hPa62.00 %11.80 °C1.04
16:15:0018.60 °C1006.50 hPa64.00 %11.70 °C1.04
16:00:0017.80 °C1006.70 hPa67.00 %11.60 °C1.04
15:45:0017.00 °C1006.80 hPa72.00 %11.90 °C1.04
15:30:0015.40 °C1007.10 hPa75.00 %11.00 °C1.04
15:15:0016.90 °C1007.10 hPa66.00 %10.50 °C0.52
15:00:0017.90 °C1006.80 hPa65.00 %11.20 °C0.52
14:45:0018.10 °C1007.00 hPa68.00 %12.10 °C0.52
14:30:0016.20 °C1007.00 hPa77.00 %12.20 °C0.52
14:15:0013.90 °C1007.00 hPa80.00 %10.50 °C0.52
14:00:0012.90 °C1007.00 hPa78.00 %9.20 °C0.52
13:45:0013.30 °C1007.00 hPa71.00 %8.20 °C0.52
13:30:0014.30 °C1006.60 hPa66.00 %8.00 °C 
13:15:0015.30 °C1006.50 hPa63.00 %8.30 °C 
13:00:0016.20 °C1006.40 hPa61.00 %8.70 °C 
12:45:0016.10 °C1006.20 hPa63.00 %9.10 °C 
12:30:0016.10 °C1006.20 hPa63.00 %9.10 °C 
12:15:0016.60 °C1006.40 hPa61.00 %9.10 °C 
12:00:0016.90 °C1006.40 hPa60.00 %4.68 km/hSO16.90 °C9.10 °C 
11:45:0017.30 °C1006.30 hPa59.00 %9.20 °C 
11:30:0017.80 °C1006.00 hPa55.00 %8.60 °C 
11:15:0018.20 °C1005.90 hPa57.00 %9.50 °C 
11:00:0018.20 °C1005.80 hPa55.00 %9.00 °C 
10:45:0018.60 °C1005.60 hPa55.00 %9.40 °C 
10:30:0018.40 °C1005.50 hPa58.00 %10.00 °C 
10:15:0017.60 °C1005.50 hPa56.00 %8.70 °C 
10:00:0018.20 °C1005.30 hPa56.00 %9.30 °C 
09:45:0018.00 °C1005.20 hPa59.00 %9.90 °C 
09:30:0016.90 °C1005.30 hPa57.00 %8.30 °C 
09:15:0016.70 °C1005.30 hPa60.00 %8.90 °C 
09:00:0016.60 °C1005.30 hPa60.00 %8.80 °C 
08:45:0016.40 °C1005.30 hPa61.00 %9.00 km/hW16.40 °C8.90 °C 
08:30:0015.80 °C1005.20 hPa64.00 %9.00 °C 
08:15:0015.10 °C1005.20 hPa66.00 %8.80 °C 
08:00:0014.90 °C1005.20 hPa67.00 %8.80 °C 
07:45:0014.90 °C1004.90 hPa73.00 %10.10 °C 
07:30:0012.90 °C1005.00 hPa81.00 %9.70 °C 
07:15:0010.20 °C1004.90 hPa89.00 %8.50 °C 
07:00:007.00 °C1004.90 hPa89.00 %5.30 °C 
06:45:006.10 °C1004.90 hPa88.00 %4.30 °C 
06:30:005.80 °C1004.70 hPa88.00 %4.00 °C 
06:15:005.80 °C1004.80 hPa88.00 %4.00 °C 
06:00:005.80 °C1004.60 hPa88.00 %4.00 °C 
05:45:005.80 °C1004.70 hPa88.00 %4.00 °C 
05:30:005.80 °C1004.50 hPa88.00 %4.00 °C 
05:15:005.90 °C1004.60 hPa88.00 %4.10 °C 
05:00:005.90 °C1004.50 hPa88.00 %4.10 °C 
04:45:005.90 °C1004.50 hPa88.00 %4.10 °C 
04:30:005.90 °C1004.40 hPa88.00 %4.10 °C 
04:15:005.90 °C1004.40 hPa88.00 %4.10 °C 
04:00:005.90 °C1004.30 hPa87.00 %3.90 °C 
03:45:006.10 °C1004.50 hPa87.00 %4.10 °C 
03:30:006.10 °C1004.50 hPa87.00 %4.10 °C 
03:15:006.20 °C1004.60 hPa87.00 %4.20 °C 
03:00:006.20 °C1004.60 hPa86.00 %4.00 °C 
02:45:006.40 °C1004.60 hPa85.00 %4.10 °C 
02:30:006.80 °C1004.80 hPa85.00 %4.50 °C 
02:15:006.90 °C1004.80 hPa85.00 %4.60 °C 
02:00:007.10 °C1004.90 hPa83.00 %4.40 °C 
01:45:007.40 °C1004.80 hPa82.00 %4.50 °C 
01:30:007.80 °C1004.70 hPa82.00 %4.90 °C 
01:15:008.10 °C1004.60 hPa81.00 %5.00 °C 
01:00:008.40 °C1004.80 hPa81.00 %5.30 °C 
00:45:008.40 °C1004.80 hPa80.00 %5.20 °C 
00:30:008.90 °C1004.80 hPa79.00 %5.50 °C 
00:15:009.20 °C1005.10 hPa77.00 %5.40 °C 
00:00:009.60 °C1005.10 hPa76.00 %5.60 °C 

Permanenter Link zu dieser Seite: Wetter im Erzgebirge am 19.05.2015
Performance-Info: Die Erstellung der Seite / Statistik(en) / Tabelle(n) erforderte 5 Datenbankserver-Abfrage(n) und dauerte 100 Millisekunden. (Dieser Messwert ist von der Gesamt-Auslastung des Servers abhängig.)
Erzgebirge - Wetter | Erzgebirge - Wetter (Mobilgeräte) | Komplette Klimadatenbank